Time;durP1;ratioP1;P1;durP2;ratioP2;P2;SDS_P1;SDS_P2;PMS_P1;PMS_P2;Temp;Humidity;BMP_temperature;BMP_pressure;BME280_temperature;BME280_humidity;BME280_pressure;Samples;Min_cycle;Max_cycle;Signal;HPM_P1;HPM_P2
2023/11/24 00:04:01;;;;;;;3.47;3.27;;;7.00;99.90;;;7.55;100.00;97748.38;10210757;28;20238;-66
2023/11/24 00:09:05;;;;;;;3.50;3.30;;;7.00;99.90;;;7.61;100.00;97739.53;10201672;28;20229;-66
2023/11/24 00:14:10;;;;;;;3.30;3.10;;;7.10;99.90;;;7.65;100.00;97746.56;10199384;28;20240;-65
2023/11/24 00:19:15;;;;;;;3.50;3.20;;;7.10;99.90;;;7.71;100.00;97724.84;10177417;28;20266;-66
2023/11/24 00:24:18;;;;;;;3.20;3.00;;;7.10;99.90;;;7.78;100.00;97710.06;10202721;28;20725;-65
2023/11/24 00:29:23;;;;;;;3.27;2.93;;;7.30;99.90;;;7.61;100.00;97711.53;10198014;28;20233;-65
2023/11/24 00:34:26;;;;;;;3.80;3.30;;;7.30;99.90;;;7.66;100.00;97712.69;10202558;28;20233;-65
2023/11/24 00:39:29;;;;;;;3.20;3.00;;;7.20;99.90;;;7.73;100.00;97691.09;10200544;28;20232;-66
2023/11/24 00:44:34;;;;;;;3.13;2.83;;;7.30;99.90;;;7.75;100.00;97671.72;10197471;28;20318;-66
2023/11/24 00:49:39;;;;;;;3.03;2.83;;;7.30;99.90;;;7.79;100.00;97658.44;10199863;28;20229;-65
2023/11/24 00:54:42;;;;;;;2.80;2.63;;;7.30;99.90;;;7.84;100.00;97636.72;10195501;28;20836;-65
2023/11/24 00:59:47;;;;;;;2.80;2.60;;;7.40;99.90;;;7.81;100.00;97640.69;10199009;28;20236;-65
2023/11/24 01:04:50;;;;;;;2.90;2.70;;;7.40;99.90;;;7.79;100.00;97621.94;10209086;28;20252;-66
2023/11/24 01:09:53;;;;;;;2.93;2.73;;;7.30;99.90;;;7.86;100.00;97618.97;10216651;28;20693;-66
2023/11/24 01:14:57;;;;;;;2.87;2.67;;;7.50;99.90;;;7.84;100.00;97615.44;10199862;28;20229;-66
2023/11/24 01:20:00;;;;;;;4.37;2.53;;;7.30;99.90;;;7.88;100.00;97608.13;10204642;28;20235;-66
2023/11/24 01:25:04;;;;;;;2.60;2.40;;;7.60;99.90;;;7.86;100.00;97596.09;10178822;28;20240;-65
2023/11/24 01:30:11;;;;;;;2.63;2.53;;;7.50;99.90;;;7.80;100.00;97614.38;10203718;28;20587;-64
2023/11/24 01:35:14;;;;;;;2.87;2.67;;;7.40;99.90;;;7.86;100.00;97621.53;10197485;28;20826;-67
2023/11/24 01:40:18;;;;;;;2.50;2.30;;;7.30;99.90;;;7.78;100.00;97631.22;10197233;28;20256;-67
2023/11/24 01:45:23;;;;;;;2.47;2.27;;;7.30;99.90;;;7.84;100.00;97640.91;10199971;28;20237;-67
2023/11/24 01:50:27;;;;;;;2.73;2.53;;;7.30;99.90;;;7.70;100.00;97631.50;10193498;28;20263;-64
2023/11/24 01:55:30;;;;;;;2.30;2.20;;;7.30;99.90;;;7.72;100.00;97614.69;10201633;28;20606;-64
2023/11/24 02:00:38;;;;;;;3.33;2.17;;;7.30;99.90;;;7.73;100.00;97602.06;10198426;28;20268;-64
2023/11/24 02:05:41;;;;;;;2.63;2.53;;;7.20;99.90;;;7.70;100.00;97612.06;10195522;28;20710;-65
2023/11/24 02:10:46;;;;;;;3.00;2.80;;;7.20;99.90;;;7.66;100.00;97598.22;10192243;28;20229;-65
2023/11/24 02:15:50;;;;;;;2.87;2.67;;;7.20;99.90;;;7.59;100.00;97591.00;10191093;28;20225;-65
2023/11/24 02:20:55;;;;;;;2.63;2.53;;;7.10;99.90;;;7.66;100.00;97579.56;10187151;28;20229;-66
2023/11/24 02:26:00;;;;;;;2.73;2.53;;;7.10;99.90;;;7.62;100.00;97578.50;10186299;28;20248;-66
2023/11/24 02:31:03;;;;;;;2.50;2.40;;;7.20;99.90;;;7.55;100.00;97581.41;10197049;28;20316;-65
2023/11/24 02:36:16;;;;;;;2.70;2.47;;;7.10;99.90;;;7.62;100.00;97568.31;10194430;28;20229;-66
2023/11/24 02:41:21;;;;;;;2.40;2.30;;;7.10;99.90;;;7.64;100.00;97559.13;10187729;28;20723;-65
2023/11/24 02:46:24;;;;;;;2.60;2.50;;;7.10;99.90;;;7.60;100.00;97562.25;10185057;28;20225;-65
2023/11/24 02:51:28;;;;;;;2.70;2.20;;;7.10;99.90;;;7.47;100.00;97559.72;10179866;28;20240;-65
2023/11/24 02:56:33;;;;;;;2.40;2.27;;;7.00;99.90;;;7.64;100.00;97540.41;10180835;28;20324;-65
2023/11/24 03:01:36;;;;;;;2.10;2.00;;;7.20;99.90;;;7.66;100.00;97534.66;10182715;28;20243;-65
2023/11/24 03:06:43;;;;;;;2.10;2.00;;;7.20;99.90;;;7.66;100.00;97521.06;10182810;28;20332;-65
2023/11/24 03:11:47;;;;;;;1.80;1.70;;;7.10;99.90;;;7.66;100.00;97501.59;10182876;28;20225;-65
2023/11/24 03:16:51;;;;;;;2.03;1.93;;;7.20;99.90;;;7.65;100.00;97512.56;10184781;28;20243;-67
2023/11/24 03:21:54;;;;;;;2.00;1.90;;;7.30;99.90;;;7.71;100.00;97516.28;10183909;28;20229;-67
2023/11/24 03:26:59;;;;;;;1.60;1.50;;;7.30;99.90;;;7.68;100.00;97507.66;10185336;29;20245;-66
2023/11/24 03:32:02;;;;;;;2.10;2.00;;;7.30;99.90;;;7.59;100.00;97496.91;10181699;29;20355;-66
2023/11/24 03:37:05;;;;;;;2.27;2.17;;;7.30;99.90;;;7.55;100.00;97479.69;10174905;28;20249;-64
2023/11/24 03:42:10;;;;;;;1.93;1.93;;;7.30;99.90;;;7.57;100.00;97478.13;10190949;28;20954;-66
2023/11/24 03:47:13;;;;;;;1.90;1.90;;;7.30;99.90;;;7.60;100.00;97470.69;10208822;28;20353;-64
2023/11/24 03:52:16;;;;;;;2.20;2.00;;;7.30;99.90;;;7.55;100.00;97463.56;10206386;28;20241;-65
2023/11/24 03:57:21;;;;;;;2.20;2.10;;;7.30;99.90;;;7.53;100.00;97476.19;10192547;28;20240;-66
2023/11/24 04:02:24;;;;;;;2.43;2.33;;;7.30;99.90;;;7.53;100.00;97467.69;10191310;28;20232;-66
2023/11/24 04:07:27;;;;;;;2.60;2.40;;;7.20;99.90;;;7.51;100.00;97459.94;10199632;28;20244;-66
2023/11/24 04:12:31;;;;;;;2.10;2.00;;;7.20;99.90;;;7.62;100.00;97455.53;10189339;28;20296;-66
2023/11/24 04:17:35;;;;;;;2.33;2.23;;;7.40;99.90;;;7.43;100.00;97439.13;10203396;28;20701;-66
2023/11/24 04:22:38;;;;;;;2.13;2.03;;;7.20;99.90;;;7.49;100.00;97432.66;10196229;28;20716;-66
2023/11/24 04:27:43;;;;;;;2.60;2.50;;;7.10;99.90;;;7.47;100.00;97432.59;10191491;28;20229;-65
2023/11/24 04:32:46;;;;;;;2.10;1.90;;;7.10;99.90;;;7.58;100.00;97405.25;10196872;28;20717;-66
2023/11/24 04:37:50;;;;;;;2.03;1.93;;;7.10;99.90;;;7.60;100.00;97411.31;10189964;28;20705;-67
2023/11/24 04:42:55;;;;;;;1.90;1.80;;;7.20;99.90;;;7.52;100.00;97426.09;10188518;28;20283;-66
2023/11/24 04:47:58;;;;;;;2.00;1.90;;;7.10;99.90;;;7.44;100.00;97440.03;10201280;28;20326;-66
2023/11/24 04:53:02;;;;;;;2.20;2.10;;;7.10;99.90;;;7.46;100.00;97423.19;10190227;28;20255;-66
2023/11/24 04:58:07;;;;;;;1.67;1.63;;;7.00;99.90;;;7.53;100.00;97432.97;10186595;28;20348;-65
2023/11/24 05:03:10;;;;;;;1.90;1.80;;;7.10;99.90;;;7.39;100.00;97442.28;10188370;28;20243;-66
2023/11/24 05:08:14;;;;;;;2.93;2.73;;;7.00;99.90;;;7.37;100.00;97463.28;10191319;28;20225;-65
2023/11/24 05:13:18;;;;;;;1.70;1.60;;;7.00;99.90;;;7.46;100.00;97481.66;10191929;28;20553;-67
2023/11/24 05:18:21;;;;;;;2.07;1.87;;;7.10;99.90;;;7.36;100.00;97481.88;10187360;28;20244;-65
2023/11/24 05:23:25;;;;;;;3.53;2.90;;;7.00;99.90;;;7.39;100.00;97477.88;10187321;28;20327;-66
2023/11/24 05:28:29;;;;;;;5.93;3.00;;;7.00;99.90;;;7.20;100.00;97490.19;10191478;28;20225;-67
2023/11/24 05:33:33;;;;;;;4.07;2.83;;;6.80;99.90;;;7.06;100.00;97485.88;10211964;28;20239;-65
2023/11/24 05:38:37;;;;;;;6.97;3.30;;;6.70;99.90;;;7.01;100.00;97480.53;10193790;28;20236;-67
2023/11/24 05:43:42;;;;;;;5.17;3.37;;;6.60;99.90;;;7.12;100.00;97476.09;10196323;28;20728;-65
2023/11/24 05:48:45;;;;;;;7.00;3.53;;;6.70;99.90;;;6.91;100.00;97475.63;10200494;28;20236;-66
2023/11/24 05:53:48;;;;;;;7.53;3.97;;;6.50;99.90;;;7.05;100.00;97476.50;10194759;28;20229;-67
2023/11/24 05:58:53;;;;;;;6.70;3.93;;;6.60;99.90;;;6.76;100.00;97467.88;10187288;28;20535;-66
2023/11/24 06:03:56;;;;;;;8.67;4.10;;;6.40;99.90;;;6.72;100.00;97453.22;10199946;28;20229;-66
2023/11/24 06:08:59;;;;;;;7.33;3.63;;;6.30;99.90;;;6.89;100.00;97441.59;10185796;28;20228;-66
2023/11/24 06:14:04;;;;;;;10.00;3.80;;;6.30;99.90;;;6.80;100.00;97451.19;10194030;28;20597;-68
2023/11/24 06:19:08;;;;;;;7.33;4.20;;;6.30;99.90;;;6.73;100.00;97435.53;10196929;28;20240;-66
2023/11/24 06:24:11;;;;;;;8.80;3.47;;;6.20;99.90;;;6.71;100.00;97432.03;10202919;28;20243;-66
2023/11/24 06:29:15;;;;;;;6.90;3.87;;;6.20;99.90;;;6.67;100.00;97409.75;10172816;28;20234;-66
2023/11/24 06:34:18;;;;;;;6.73;3.60;;;6.20;99.90;;;6.66;100.00;97405.44;10173886;28;20228;-66
2023/11/24 06:39:22;;;;;;;9.40;3.60;;;6.10;99.90;;;6.48;100.00;97412.75;10181237;28;20376;-66
2023/11/24 06:44:26;;;;;;;8.20;3.50;;;6.00;99.90;;;6.37;100.00;97412.84;10247214;28;20232;-66
2023/11/24 06:49:31;;;;;;;7.13;3.63;;;5.90;99.90;;;6.27;100.00;97422.38;10254074;28;20581;-66
2023/11/24 06:54:35;;;;;;;7.13;3.20;;;5.90;99.90;;;6.23;100.00;97420.41;10314932;28;20320;-66
2023/11/24 06:59:40;;;;;;;6.97;3.63;;;5.80;99.90;;;6.26;100.00;97418.06;10198387;28;20508;-66
2023/11/24 07:04:43;;;;;;;9.07;4.00;;;5.80;99.90;;;6.39;100.00;97417.22;10131718;28;20231;-66
2023/11/24 07:09:46;;;;;;;8.43;4.20;;;5.90;99.90;;;6.32;100.00;97415.06;10124871;28;20238;-66
2023/11/24 07:14:51;;;;;;;12.77;4.80;;;5.80;99.90;;;6.30;100.00;97409.91;10126438;28;20226;-66
2023/11/24 07:19:54;;;;;;;8.80;3.97;;;5.90;99.90;;;6.35;100.00;97411.84;10131709;28;20662;-66
2023/11/24 07:24:58;;;;;;;6.93;3.80;;;5.90;99.90;;;6.36;100.00;97401.81;10134000;28;20234;-66
2023/11/24 07:30:03;;;;;;;9.60;4.23;;;5.90;99.90;;;6.45;100.00;97401.53;10134472;28;20234;-66
2023/11/24 07:35:08;;;;;;;9.00;5.70;;;6.00;99.90;;;6.49;100.00;97393.31;10202411;28;20229;-66
2023/11/24 07:40:13;;;;;;;10.00;4.47;;;6.00;99.90;;;6.49;100.00;97398.41;10195528;28;20344;-68
2023/11/24 07:45:19;;;;;;;11.83;4.03;;;6.00;99.90;;;6.48;100.00;97396.66;10194922;28;20324;-67
2023/11/24 07:50:23;;;;;;;8.93;4.30;;;6.00;99.90;;;6.50;100.00;97393.44;10200428;28;20620;-68
2023/11/24 07:55:26;;;;;;;5.50;3.73;;;6.00;99.90;;;6.51;100.00;97377.41;10200830;28;20260;-68
2023/11/24 08:00:31;;;;;;;7.27;4.20;;;6.00;99.90;;;6.52;100.00;97368.13;10204415;28;20225;-67
2023/11/24 08:05:35;;;;;;;7.40;4.10;;;6.00;99.90;;;6.49;100.00;97358.66;10202763;28;20645;-67
2023/11/24 08:10:40;;;;;;;10.43;4.47;;;6.00;99.90;;;6.54;100.00;97366.56;10205087;28;20229;-68
2023/11/24 08:15:44;;;;;;;9.10;4.97;;;6.00;99.90;;;6.56;100.00;97361.59;10199703;28;20251;-68
2023/11/24 08:20:47;;;;;;;10.30;5.27;;;6.10;99.90;;;6.55;100.00;97358.16;10204078;28;20232;-67
2023/11/24 08:25:51;;;;;;;9.60;5.00;;;6.10;99.90;;;6.60;100.00;97350.84;10200362;28;20795;-67
2023/11/24 08:30:56;;;;;;;7.70;5.20;;;6.10;99.90;;;6.64;100.00;97328.31;10198549;28;20235;-67
2023/11/24 08:35:59;;;;;;;11.80;5.67;;;6.10;99.90;;;6.72;100.00;97324.59;10201451;28;20241;-68
2023/11/24 08:41:02;;;;;;;9.50;5.10;;;6.20;99.90;;;6.71;100.00;97325.34;10195854;28;20618;-67
2023/11/24 08:46:09;;;;;;;10.27;4.50;;;6.20;99.90;;;6.68;100.00;97330.25;10196850;28;20307;-67
2023/11/24 08:51:12;;;;;;;8.53;4.60;;;6.10;99.90;;;6.71;100.00;97330.44;10192556;28;20221;-67
2023/11/24 08:56:15;;;;;;;13.97;4.33;;;6.20;99.90;;;6.67;100.00;97322.56;10200882;28;20244;-67
2023/11/24 09:01:20;;;;;;;9.33;4.13;;;6.10;99.90;;;6.64;100.00;97312.16;10195791;28;20726;-67
2023/11/24 09:06:27;;;;;;;8.90;4.10;;;6.10;99.90;;;6.61;100.00;97307.81;10182762;28;20657;-67
2023/11/24 09:11:30;;;;;;;8.77;4.30;;;6.10;99.90;;;6.59;100.00;97299.19;10238357;28;20725;-67
2023/11/24 09:16:35;;;;;;;10.23;4.83;;;6.10;99.90;;;6.63;100.00;97305.34;10187681;28;20612;-66
2023/11/24 09:21:38;;;;;;;10.93;4.83;;;6.10;99.90;;;6.60;100.00;97292.47;10185357;28;20242;-67
2023/11/24 09:26:44;;;;;;;8.90;3.97;;;6.10;99.90;;;6.66;100.00;97275.06;10185118;28;20279;-68
2023/11/24 09:31:48;;;;;;;13.33;8.10;;;6.10;99.90;;;6.60;100.00;97288.25;10188316;28;20240;-66
2023/11/24 09:36:51;;;;;;;8.57;4.93;;;6.10;99.90;;;6.53;100.00;97298.81;10185557;29;20226;-66
2023/11/24 09:41:56;;;;;;;7.20;4.53;;;6.10;99.90;;;6.33;100.00;97315.31;10185839;28;20248;-67
2023/11/24 09:47:00;;;;;;;6.50;3.30;;;5.80;99.90;;;6.15;100.00;97316.66;10185960;29;20232;-66
2023/11/24 09:52:04;;;;;;;10.03;4.40;;;5.60;99.90;;;5.98;100.00;97297.78;10185710;28;20319;-67
2023/11/24 09:57:07;;;;;;;8.17;3.20;;;5.50;99.90;;;5.65;100.00;97269.41;10185291;28;20316;-66
2023/11/24 10:02:18;;;;;;;10.07;3.80;;;5.20;99.90;;;5.61;100.00;97252.25;10187398;28;20233;-66
2023/11/24 10:07:23;;;;;;;5.43;2.90;;;5.20;99.90;;;5.60;100.00;97246.28;10188657;28;20228;-66
2023/11/24 10:12:29;;;;;;;9.10;5.30;;;5.20;99.90;;;5.22;100.00;97222.59;10186568;28;20609;-66
2023/11/24 10:17:36;;;;;;;11.27;6.40;;;5.00;99.90;;;5.48;100.00;97214.19;10187427;28;20652;-67
2023/11/24 10:22:40;;;;;;;8.00;4.23;;;5.20;99.90;;;5.32;100.00;97202.16;10186615;29;20245;-67
2023/11/24 10:27:43;;;;;;;7.87;3.20;;;5.00;99.90;;;5.27;100.00;97184.13;10181957;28;20241;-67
2023/11/24 10:32:49;;;;;;;5.17;3.87;;;5.00;99.90;;;5.12;100.00;97178.94;10187766;29;20313;-67
2023/11/24 10:37:54;;;;;;;11.37;4.57;;;4.90;99.90;;;5.16;100.00;97177.47;10187000;28;20233;-67
2023/11/24 10:42:57;;;;;;;8.27;3.47;;;4.90;99.90;;;5.34;100.00;97175.28;10183674;28;20249;-67
2023/11/24 10:48:10;;;;;;;4.93;3.30;;;5.00;99.90;;;5.51;100.00;97149.38;10184464;29;20237;-67
2023/11/24 10:53:23;;;;;;;8.87;4.73;;;5.20;99.90;;;5.66;100.00;97152.00;10197830;28;20232;-68
2023/11/24 10:58:27;;;;;;;10.33;4.83;;;5.20;99.90;;;5.70;100.00;97140.44;10192940;28;20240;-66
2023/11/24 11:03:34;;;;;;;11.53;5.63;;;5.40;99.90;;;5.80;100.00;97112.34;10192280;28;20243;-66
2023/11/24 11:08:42;;;;;;;8.80;4.80;;;5.50;99.90;;;5.80;100.00;97123.34;10189667;28;20229;-67
2023/11/24 11:13:46;;;;;;;9.10;4.30;;;5.40;99.90;;;5.87;100.00;97110.28;10197792;28;20229;-67
2023/11/24 11:18:51;;;;;;;10.40;5.33;;;5.50;99.90;;;6.18;100.00;97107.16;10193322;28;20229;-67
2023/11/24 11:23:57;;;;;;;11.47;4.80;;;5.80;99.90;;;6.25;100.00;97088.97;10186250;28;20233;-66
2023/11/24 11:29:03;;;;;;;11.70;4.97;;;5.90;99.90;;;6.30;100.00;97107.91;10192143;28;20225;-67
2023/11/24 11:34:13;;;;;;;7.67;4.20;;;5.90;99.90;;;6.20;100.00;97089.47;10190261;28;20331;-67
2023/11/24 11:39:21;;;;;;;7.50;4.20;;;5.70;99.90;;;6.37;100.00;97082.91;10192312;28;20240;-68
2023/11/24 11:44:33;;;;;;;6.83;4.70;;;5.90;99.90;;;6.14;100.00;97066.28;10226231;28;20240;-67
2023/11/24 11:49:41;;;;;;;11.70;6.67;;;5.70;99.90;;;6.12;100.00;97065.28;10189509;28;20316;-67
2023/11/24 11:54:45;;;;;;;9.40;5.63;;;5.60;99.90;;;6.12;100.00;97045.88;10198719;28;20233;-67
2023/11/24 11:59:49;;;;;;;9.73;5.87;;;5.70;99.90;;;6.34;100.00;97026.88;10182534;28;20934;-66
2023/11/24 12:04:54;;;;;;;10.60;6.50;;;5.90;99.90;;;6.52;100.00;96994.97;10206844;28;20239;-66
2023/11/24 12:09:57;;;;;;;14.10;8.87;;;6.10;99.90;;;6.79;100.00;96989.75;10202086;28;20233;-67
2023/11/24 12:15:07;;;;;;;13.10;5.50;;;6.30;99.90;;;6.69;100.00;96981.56;10198834;28;20778;-67
2023/11/24 12:20:14;;;;;;;12.60;5.43;;;6.20;99.90;;;6.74;100.00;96975.09;10194188;28;20244;-66
2023/11/24 12:25:18;;;;;;;12.60;4.37;;;6.30;99.90;;;6.48;100.00;97003.19;10202443;28;20233;-67
2023/11/24 12:30:22;;;;;;;7.57;4.60;;;6.10;99.90;;;6.39;100.00;96987.44;10197355;28;20225;-66
2023/11/24 12:35:28;;;;;;;14.90;7.23;;;6.10;99.90;;;6.50;100.00;96994.88;10199977;28;20237;-67
2023/11/24 12:40:32;;;;;;;9.07;4.60;;;6.10;99.90;;;6.48;100.00;96998.13;10205498;28;20309;-68
2023/11/24 12:45:40;;;;;;;3.10;2.67;;;6.10;99.90;;;5.39;100.00;97017.69;10197596;28;20233;-66
2023/11/24 12:50:45;;;;;;;3.03;2.13;;;5.20;99.90;;;4.90;100.00;97009.50;10197483;28;20232;-66
2023/11/24 12:55:49;;;;;;;3.70;2.87;;;4.60;99.90;;;4.97;100.00;96983.78;10194148;28;20310;-67
2023/11/24 13:00:53;;;;;;;5.23;2.73;;;4.70;99.90;;;5.21;100.00;96950.69;10198706;28;20239;-67
2023/11/24 13:05:58;;;;;;;5.23;3.57;;;4.90;99.90;;;5.25;100.00;96962.75;10203565;28;20316;-68
2023/11/24 13:11:01;;;;;;;12.93;9.23;;;5.00;99.90;;;5.34;100.00;96963.31;10193080;28;20686;-67
2023/11/24 13:16:08;;;;;;;9.30;3.73;;;5.10;99.90;;;5.42;100.00;96954.53;10193408;28;20233;-66
2023/11/24 13:21:13;;;;;;;7.70;5.43;;;5.10;99.90;;;5.61;100.00;96959.09;10201004;28;20236;-66
2023/11/24 13:26:18;;;;;;;11.93;6.07;;;5.30;99.90;;;5.94;100.00;96939.13;10195799;28;20372;-67
2023/11/24 13:31:23;;;;;;;10.93;7.17;;;5.50;99.90;;;6.05;100.00;96922.00;10200742;28;20236;-67
2023/11/24 13:36:28;;;;;;;8.53;5.70;;;5.70;99.90;;;6.13;100.00;96930.94;10210672;28;20631;-67
2023/11/24 13:41:31;;;;;;;8.00;5.27;;;5.70;99.90;;;6.17;100.00;96937.94;10197974;28;20771;-67
2023/11/24 13:46:34;;;;;;;7.60;5.83;;;5.70;99.90;;;6.14;100.00;96912.41;10201121;28;20250;-67
2023/11/24 13:51:39;;;;;;;9.20;5.17;;;5.70;99.90;;;6.07;100.00;96928.06;10197880;28;20717;-67
2023/11/24 13:56:44;;;;;;;8.00;4.57;;;5.60;99.90;;;5.97;100.00;96935.91;10195250;28;20754;-66
2023/11/24 14:01:48;;;;;;;5.63;3.20;;;5.50;99.90;;;5.99;100.00;96944.47;10207105;28;20237;-67
2023/11/24 14:06:53;;;;;;;5.07;4.10;;;5.50;99.90;;;5.96;100.00;96937.56;10198532;28;20229;-66
2023/11/24 14:11:58;;;;;;;5.57;3.63;;;5.40;99.90;;;5.81;100.00;96936.63;10190127;28;20237;-65
2023/11/24 14:17:03;;;;;;;6.43;3.80;;;5.30;99.90;;;5.65;100.00;96929.75;10214635;28;20239;-65
2023/11/24 14:22:07;;;;;;;7.47;4.37;;;5.20;99.90;;;5.53;100.00;96927.34;10245336;28;20237;-67
2023/11/24 14:27:12;;;;;;;9.60;5.13;;;5.10;99.90;;;5.55;100.00;96917.28;10197591;28;20600;-65
2023/11/24 14:32:16;;;;;;;11.53;6.33;;;5.10;99.90;;;5.42;100.00;96906.41;10198741;28;20237;-66
2023/11/24 14:37:21;;;;;;;11.43;5.50;;;5.00;99.90;;;5.44;100.00;96909.03;10191355;28;20509;-66
2023/11/24 14:42:24;;;;;;;17.33;10.50;;;5.00;99.90;;;5.50;100.00;96914.47;10193918;28;20240;-65
2023/11/24 14:47:27;;;;;;;6.97;5.13;;;5.00;99.90;;;5.53;100.00;96903.66;10188889;28;20233;-65
2023/11/24 14:52:31;;;;;;;9.23;5.77;;;5.00;99.90;;;5.30;100.00;96890.47;10186206;28;20784;-66
2023/11/24 14:57:35;;;;;;;10.63;5.20;;;4.90;99.90;;;5.36;100.00;96912.75;10185846;28;20711;-65
2023/11/24 15:02:39;;;;;;;9.30;5.93;;;4.90;99.90;;;4.79;100.00;97004.53;10175366;29;20229;-65
2023/11/24 15:07:46;;;;;;;6.20;3.67;;;4.60;99.90;;;4.06;100.00;97019.97;10180689;28;20229;-65
2023/11/24 15:12:50;;;;;;;3.53;3.23;;;3.90;99.90;;;3.74;100.00;96996.66;10179263;28;20240;-65
2023/11/24 15:17:53;;;;;;;3.37;3.17;;;3.50;99.90;;;3.82;100.00;96996.41;10180052;28;20236;-65
2023/11/24 15:22:58;;;;;;;2.90;2.70;;;3.50;99.90;;;3.79;100.00;97015.53;10196152;28;20218;-64
2023/11/24 15:28:04;;;;;;;5.70;5.03;;;3.40;99.90;;;3.80;100.00;97007.19;10197242;28;20233;-64
2023/11/24 15:33:08;;;;;;;6.53;5.93;;;3.40;99.90;;;3.98;100.00;97011.00;10189968;28;20233;-64
2023/11/24 15:38:18;;;;;;;4.90;4.33;;;3.50;99.90;;;3.61;100.00;97008.44;10188625;28;20728;-66
2023/11/24 15:43:23;;;;;;;4.57;4.13;;;3.30;99.90;;;3.63;100.00;97012.72;10192304;28;20245;-65
2023/11/24 15:48:30;;;;;;;6.40;5.80;;;3.30;99.90;;;3.68;100.00;97024.03;10194082;28;20285;-65
2023/11/24 15:53:35;;;;;;;5.30;3.97;;;3.30;99.90;;;3.68;100.00;97027.44;10212211;28;20534;-65
2023/11/24 15:58:42;;;;;;;7.40;6.73;;;3.30;99.90;;;3.75;100.00;97019.53;10202975;28;20244;-69
2023/11/24 16:03:45;;;;;;;5.73;5.20;;;3.40;99.90;;;3.79;100.00;97025.66;10192296;28;20726;-66
2023/11/24 16:08:54;;;;;;;9.87;9.00;;;3.40;99.90;;;3.92;100.00;97012.19;10190226;28;20233;-66
2023/11/24 16:13:57;;;;;;;8.60;6.97;;;3.40;99.90;;;3.90;100.00;97024.75;10196677;28;20324;-65
2023/11/24 16:19:00;;;;;;;6.57;5.93;;;3.40;99.90;;;3.75;100.00;97029.63;10255873;28;20248;-64
2023/11/24 16:24:06;;;;;;;7.10;6.50;;;3.30;99.90;;;3.73;100.00;97032.81;10257765;28;20245;-66
2023/11/24 16:29:09;;;;;;;6.67;6.07;;;3.30;99.90;;;3.89;100.00;97035.59;10166463;28;20232;-65
2023/11/24 16:34:14;;;;;;;8.50;7.80;;;3.40;99.90;;;3.83;100.00;97032.66;10235866;28;20240;-64
2023/11/24 16:39:22;;;;;;;7.70;7.00;;;3.40;99.90;;;3.81;100.00;97044.34;10198408;28;20319;-64
2023/11/24 16:44:26;;;;;;;7.40;6.87;;;3.40;99.90;;;4.02;100.00;97034.81;10168454;28;20265;-64
2023/11/24 16:49:30;;;;;;;6.57;4.90;;;3.50;99.90;;;4.07;100.00;97044.47;10188950;28;20319;-65
2023/11/24 16:54:36;;;;;;;5.20;4.30;;;3.60;99.90;;;3.99;100.00;97055.72;10189309;28;20241;-65
2023/11/24 16:59:39;;;;;;;8.70;6.20;;;3.60;99.90;;;3.97;100.00;97067.34;10186474;28;20233;-64
2023/11/24 17:04:43;;;;;;;7.23;6.60;;;3.50;99.90;;;4.09;100.00;97066.44;10202881;28;20609;-64
2023/11/24 17:09:51;;;;;;;5.90;5.20;;;3.70;99.90;;;4.14;100.00;97080.28;10203804;28;20230;-65
2023/11/24 17:14:54;;;;;;;4.30;3.90;;;3.70;99.90;;;4.03;100.00;97097.25;10199500;28;21760;-64
2023/11/24 17:19:57;;;;;;;9.40;8.40;;;3.60;99.90;;;4.14;100.00;97100.53;10212599;28;20286;-65
2023/11/24 17:25:02;;;;;;;5.60;5.10;;;3.70;99.90;;;4.07;100.00;97095.03;10250570;28;20237;-66
2023/11/24 17:30:08;;;;;;;6.67;4.23;;;3.60;99.90;;;4.03;100.00;97092.19;10212421;28;20590;-65
2023/11/24 17:35:12;;;;;;;4.90;4.50;;;3.60;99.90;;;4.09;100.00;97086.66;10200268;28;20233;-65
2023/11/24 17:40:17;;;;;;;6.40;4.90;;;3.60;99.90;;;4.12;100.00;97089.41;10218874;28;20225;-65
2023/11/24 17:45:21;;;;;;;4.57;4.17;;;3.60;99.90;;;3.95;100.00;97085.72;10202153;28;20283;-64
2023/11/24 17:50:24;;;;;;;4.77;4.30;;;3.50;99.90;;;3.98;100.00;97098.59;10192046;28;20797;-65
2023/11/24 17:55:30;;;;;;;6.03;5.53;;;3.50;99.90;;;3.98;100.00;97088.47;10201844;28;20234;-65
2023/11/24 18:00:35;;;;;;;6.30;5.07;;;3.40;99.90;;;3.86;100.00;97093.53;10200297;28;20239;-65
2023/11/24 18:05:38;;;;;;;6.40;5.17;;;3.40;99.90;;;4.00;100.00;97081.84;10189354;28;20229;-64
2023/11/24 18:10:43;;;;;;;7.97;5.90;;;3.30;99.90;;;3.75;100.00;97089.38;10255330;28;20232;-63
2023/11/24 18:15:46;;;;;;;5.97;5.47;;;3.30;99.90;;;3.97;100.00;97082.53;10191480;28;20229;-64
2023/11/24 18:20:49;;;;;;;5.73;5.20;;;3.40;99.90;;;3.77;100.00;97091.25;10191048;28;20444;-64
2023/11/24 18:25:54;;;;;;;5.37;4.30;;;3.20;99.90;;;3.65;100.00;97072.69;10184756;28;20236;-65
2023/11/24 18:30:57;;;;;;;7.97;6.53;;;3.10;99.90;;;3.58;100.00;97060.41;10184212;28;20340;-64
2023/11/24 18:36:00;;;;;;;11.33;7.17;;;3.00;99.90;;;3.53;100.00;97057.56;10204823;28;20253;-65
2023/11/24 18:41:05;;;;;;;8.17;6.67;;;3.00;99.90;;;3.39;100.00;97050.66;10203045;28;20233;-64
2023/11/24 18:46:09;;;;;;;12.40;9.07;;;2.90;99.90;;;3.53;100.00;97044.94;10196068;28;20229;-66
2023/11/24 18:51:14;;;;;;;8.33;7.13;;;3.00;99.90;;;3.55;100.00;97050.97;10193449;28;20221;-65
2023/11/24 18:56:21;;;;;;;10.50;7.97;;;3.10;99.90;;;3.60;100.00;97043.69;10218888;28;20232;-65
2023/11/24 19:01:24;;;;;;;13.77;11.70;;;3.10;99.90;;;3.74;100.00;97043.00;10199003;28;20323;-66
2023/11/24 19:06:28;;;;;;;7.30;6.37;;;3.20;99.90;;;3.79;100.00;97053.44;10199312;28;20232;-65
2023/11/24 19:11:33;;;;;;;12.70;8.60;;;3.30;99.90;;;3.87;100.00;97054.88;10188841;28;20229;-65
2023/11/24 19:16:43;;;;;;;12.13;10.03;;;3.30;99.90;;;3.86;100.00;97050.56;10200694;28;20740;-65
2023/11/24 19:21:47;;;;;;;10.57;8.50;;;3.30;99.90;;;3.88;100.00;97051.56;10192468;28;20608;-64
2023/11/24 19:26:52;;;;;;;10.53;7.87;;;3.30;99.90;;;3.75;100.00;97048.94;10200373;28;20225;-65
2023/11/24 19:31:56;;;;;;;34.83;26.40;;;3.30;99.90;;;3.84;100.00;97047.06;10210197;28;20831;-66
2023/11/24 19:37:00;;;;;;;7.17;6.23;;;3.40;99.90;;;3.97;100.00;97042.06;10192277;28;20724;-64
2023/11/24 19:42:05;;;;;;;11.63;10.47;;;3.50;99.90;;;3.87;100.00;97054.88;10189417;28;20714;-65
2023/11/24 19:47:09;;;;;;;7.17;6.47;;;3.40;99.90;;;3.74;100.00;97058.16;10196149;28;20383;-66
2023/11/24 19:52:13;;;;;;;5.03;3.40;;;3.30;99.90;;;3.71;100.00;97044.47;10194445;28;20243;-65
2023/11/24 19:57:18;;;;;;;7.07;6.37;;;3.30;99.90;;;3.67;100.00;97045.03;10196418;28;20255;-65
2023/11/24 20:02:21;;;;;;;4.57;4.07;;;3.30;99.90;;;3.71;100.00;97046.97;10202748;28;20241;-66
2023/11/24 20:07:24;;;;;;;3.67;3.17;;;3.20;99.90;;;3.57;100.00;97044.34;10207473;28;20239;-65
2023/11/24 20:12:29;;;;;;;4.00;3.10;;;3.20;99.90;;;3.61;100.00;97048.00;10194156;28;20273;-65
2023/11/24 20:17:32;;;;;;;3.80;3.50;;;3.20;99.90;;;3.85;100.00;97041.25;10191718;28;20323;-66
2023/11/24 20:22:36;;;;;;;5.10;3.70;;;3.30;99.90;;;3.78;100.00;97039.06;10194593;28;20705;-65
2023/11/24 20:27:40;;;;;;;4.20;3.37;;;3.30;99.90;;;3.75;100.00;97038.81;10193686;28;20954;-64
2023/11/24 20:32:43;;;;;;;4.87;3.70;;;3.40;99.90;;;3.87;100.00;97044.75;10195665;28;20727;-65
2023/11/24 20:37:46;;;;;;;6.10;3.83;;;3.40;99.90;;;3.81;100.00;97024.13;10196748;28;20228;-65
2023/11/24 20:42:52;;;;;;;6.33;4.50;;;3.30;99.90;;;3.89;100.00;97025.50;10191995;28;20229;-65
2023/11/24 20:47:56;;;;;;;3.87;3.37;;;3.30;99.90;;;3.81;100.00;97027.53;10194468;28;20226;-64
2023/11/24 20:52:59;;;;;;;4.33;3.93;;;3.40;99.90;;;3.81;100.00;97008.97;10187626;28;20257;-64
2023/11/24 20:58:03;;;;;;;8.57;5.23;;;3.30;99.90;;;3.57;100.00;97003.94;10186918;28;20236;-65
2023/11/24 21:03:07;;;;;;;5.97;5.30;;;3.20;99.90;;;3.63;100.00;96992.50;10189111;28;20282;-63
2023/11/24 21:08:10;;;;;;;25.83;13.70;;;3.10;99.90;;;3.79;100.00;96987.75;10195677;28;20228;-65
2023/11/24 21:13:16;;;;;;;37.13;21.40;;;3.20;99.90;;;3.66;100.00;96983.47;10203543;28;20632;-66
2023/11/24 21:18:20;;;;;;;44.23;28.43;;;3.20;99.90;;;3.70;100.00;96998.09;10197586;28;20236;-66